createdAt,value
2023-07-18T00:01:02.596Z,101062.00
2023-07-18T00:03:41.538Z,101064.19
2023-07-18T00:06:10.192Z,101062.00
2023-07-18T00:08:40.178Z,101059.19
2023-07-18T00:11:08.253Z,101064.00
2023-07-18T00:13:36.818Z,101064.19
2023-07-18T00:16:05.196Z,101068.47
2023-07-18T00:18:33.417Z,101059.66
2023-07-18T00:21:02.808Z,101061.19
2023-07-18T00:23:31.514Z,101068.59
2023-07-18T00:25:59.581Z,101075.28
2023-07-18T00:28:27.951Z,101067.72
2023-07-18T00:30:56.275Z,101075.50
2023-07-18T00:33:25.102Z,101078.75
2023-07-18T00:35:53.115Z,101074.88
2023-07-18T00:38:22.553Z,101074.41
2023-07-18T00:40:51.086Z,101072.84
2023-07-18T00:43:19.366Z,101073.09
2023-07-18T00:45:50.337Z,101064.72
2023-07-18T00:48:18.970Z,101068.13
2023-07-18T00:51:08.396Z,101065.53
2023-07-18T00:53:39.757Z,101067.50
2023-07-18T00:56:09.645Z,101072.19
2023-07-18T00:58:37.915Z,101066.06
2023-07-18T01:01:06.684Z,101073.66
2023-07-18T01:03:35.514Z,101064.72
2023-07-18T01:06:04.423Z,101065.22
2023-07-18T01:08:32.599Z,101064.00
2023-07-18T01:11:03.583Z,101061.63
2023-07-18T01:13:31.576Z,101066.06
2023-07-18T01:15:59.884Z,101064.25
2023-07-18T01:18:28.047Z,101060.50
2023-07-18T01:20:56.586Z,101064.84
2023-07-18T01:23:26.457Z,101063.66
2023-07-18T01:25:55.673Z,101062.44
2023-07-18T01:28:24.534Z,101053.97
2023-07-18T01:30:52.849Z,101046.47
2023-07-18T01:33:20.950Z,101049.44
2023-07-18T01:35:49.298Z,101056.69
2023-07-18T01:38:17.289Z,101060.19
2023-07-18T01:40:46.976Z,101056.41
2023-07-18T01:43:15.086Z,101055.13
2023-07-18T01:45:43.404Z,101053.34
2023-07-18T01:48:11.624Z,101048.63
2023-07-18T01:50:41.343Z,101048.13
2023-07-18T01:53:11.907Z,101041.16
2023-07-18T01:55:40.266Z,101039.13
2023-07-18T01:58:09.748Z,101044.28
2023-07-18T02:00:38.099Z,101042.47
2023-07-18T02:03:06.960Z,101050.09
2023-07-18T02:05:35.702Z,101032.91
2023-07-18T02:08:03.670Z,101040.88
2023-07-18T02:10:32.379Z,101038.81
2023-07-18T02:13:04.189Z,101027.22
2023-07-18T02:15:34.878Z,101024.16
2023-07-18T02:18:07.203Z,101023.56
2023-07-18T02:20:35.595Z,101026.44
2023-07-18T02:23:03.635Z,101023.56
2023-07-18T02:25:31.936Z,101024.91
2023-07-18T02:27:59.941Z,101026.19
2023-07-18T02:30:32.133Z,101020.47
2023-07-18T02:33:01.537Z,101009.09
2023-07-18T02:35:29.885Z,101014.38
2023-07-18T02:38:00.545Z,101019.88
2023-07-18T02:40:28.854Z,101024.69
2023-07-18T02:42:57.945Z,101025.38
2023-07-18T02:45:26.261Z,101021.78
2023-07-18T02:47:54.593Z,101023.97
2023-07-18T02:50:24.307Z,101022.34
2023-07-18T02:52:52.712Z,101017.94
2023-07-18T02:55:21.032Z,101025.53
2023-07-18T02:57:49.109Z,101017.31
2023-07-18T03:00:21.147Z,101024.41
2023-07-18T03:02:50.461Z,101021.94
2023-07-18T03:05:19.577Z,101024.47
2023-07-18T03:07:49.334Z,101025.34
2023-07-18T03:10:17.644Z,101030.31
2023-07-18T03:12:45.709Z,101031.19
2023-07-18T03:15:14.116Z,101031.78
2023-07-18T03:17:42.819Z,101033.75
2023-07-18T03:20:17.965Z,101038.03
2023-07-18T03:22:46.477Z,101034.00
2023-07-18T03:25:17.191Z,101032.59
2023-07-18T03:27:45.996Z,101041.28
2023-07-18T03:30:14.406Z,101045.97
2023-07-18T03:32:42.756Z,101048.97
2023-07-18T03:35:12.088Z,101049.25
2023-07-18T03:37:40.212Z,101053.81
2023-07-18T03:40:11.083Z,101052.78
2023-07-18T03:42:40.669Z,101051.13
2023-07-18T03:45:11.505Z,101058.63
2023-07-18T03:47:39.688Z,101057.16
2023-07-18T03:50:10.345Z,101055.63
2023-07-18T03:52:38.442Z,101057.19
2023-07-18T03:55:07.982Z,101059.09
2023-07-18T03:57:36.562Z,101051.22
2023-07-18T04:00:15.249Z,101057.03
2023-07-18T04:02:46.795Z,101049.19
2023-07-18T04:05:16.378Z,101051.09
2023-07-18T04:07:45.260Z,101039.56
2023-07-18T04:10:14.216Z,101036.13
2023-07-18T04:12:42.673Z,101038.84
2023-07-18T04:15:13.029Z,101040.34
2023-07-18T04:17:41.142Z,101038.88
2023-07-18T04:20:10.025Z,101037.69
2023-07-18T04:22:38.261Z,101030.66
2023-07-18T04:25:07.676Z,101034.19
2023-07-18T04:27:35.702Z,101030.66
2023-07-18T04:30:04.817Z,101028.81
2023-07-18T04:32:34.975Z,101039.94
2023-07-18T04:35:04.906Z,101034.53
2023-07-18T04:37:33.015Z,101035.00
2023-07-18T04:40:01.287Z,101030.16
2023-07-18T04:42:29.972Z,101029.25
2023-07-18T04:44:58.689Z,101028.00
2023-07-18T04:47:27.594Z,101026.28
2023-07-18T04:49:57.716Z,101032.47
2023-07-18T04:52:25.959Z,101025.84
2023-07-18T04:54:54.544Z,101028.13
2023-07-18T04:57:23.340Z,101020.41
2023-07-18T04:59:51.805Z,101024.56
2023-07-18T05:02:20.424Z,101026.31
2023-07-18T05:04:49.209Z,101030.28
2023-07-18T05:07:18.619Z,101029.72
2023-07-18T05:09:47.653Z,101024.56
2023-07-18T05:12:15.782Z,101026.16
2023-07-18T05:14:44.458Z,101021.72
2023-07-18T05:17:12.631Z,101022.72
2023-07-18T05:19:40.957Z,101028.53
2023-07-18T05:22:08.986Z,101037.69
2023-07-18T05:24:38.868Z,101026.00
2023-07-18T05:27:07.384Z,101022.88
2023-07-18T05:29:35.695Z,101014.06
2023-07-18T05:32:03.877Z,101017.78
2023-07-18T05:34:32.226Z,101011.31
2023-07-18T05:37:01.956Z,101009.66
2023-07-18T05:39:30.241Z,101015.41
2023-07-18T05:41:59.611Z,101010.66
2023-07-18T05:44:28.090Z,101014.38
2023-07-18T05:46:56.076Z,101008.34
2023-07-18T05:49:24.379Z,101005.50
2023-07-18T05:51:53.077Z,101009.28
2023-07-18T05:54:21.452Z,101002.28
2023-07-18T05:56:49.629Z,101009.63
2023-07-18T05:59:19.327Z,100998.84
2023-07-18T06:01:47.906Z,101005.84
2023-07-18T06:04:17.240Z,101006.03
2023-07-18T06:06:46.076Z,101001.31
2023-07-18T06:09:14.794Z,101003.25
2023-07-18T06:11:43.429Z,101008.34
2023-07-18T06:14:11.886Z,100994.91
2023-07-18T06:16:41.330Z,100987.97
2023-07-18T06:19:09.840Z,100989.22
2023-07-18T06:21:37.878Z,100990.22
2023-07-18T06:24:17.972Z,100984.84
2023-07-18T06:26:50.151Z,100988.00
2023-07-18T06:29:19.645Z,100979.94
2023-07-18T06:31:50.067Z,100985.94
2023-07-18T06:34:19.071Z,100987.84
2023-07-18T06:36:47.954Z,100982.72
2023-07-18T06:39:17.804Z,100984.63
2023-07-18T06:41:46.516Z,100986.44
2023-07-18T06:44:16.591Z,100979.91
2023-07-18T06:46:45.002Z,100979.50
2023-07-18T06:49:16.269Z,100975.50
2023-07-18T06:51:44.441Z,100972.81
2023-07-18T06:54:13.044Z,100974.38
2023-07-18T06:56:41.913Z,100967.88
2023-07-18T06:59:10.918Z,100962.09
2023-07-18T07:01:39.006Z,100961.88
2023-07-18T07:04:07.567Z,100954.19
2023-07-18T07:06:42.405Z,100952.28
2023-07-18T07:09:11.318Z,100950.03
2023-07-18T07:11:39.472Z,100953.41
2023-07-18T07:14:07.779Z,100956.66
2023-07-18T07:16:36.336Z,100946.22
2023-07-18T07:19:06.598Z,100944.16
2023-07-18T07:21:35.063Z,100944.50
2023-07-18T07:24:05.270Z,100947.09
2023-07-18T07:26:33.553Z,100931.16
2023-07-18T07:29:01.905Z,100933.38
2023-07-18T07:31:30.098Z,100931.28
2023-07-18T07:33:58.595Z,100925.50
2023-07-18T07:36:26.714Z,100928.13
2023-07-18T07:38:55.066Z,100931.81
2023-07-18T07:41:25.963Z,100919.84
2023-07-18T07:43:54.256Z,100921.97
2023-07-18T07:46:22.383Z,100927.22
2023-07-18T07:48:50.673Z,100914.66
2023-07-18T07:51:19.230Z,100914.03
2023-07-18T07:53:48.269Z,100910.53
2023-07-18T07:56:16.357Z,100908.19
2023-07-18T07:58:57.414Z,100905.16
2023-07-18T08:01:33.509Z,100902.16
2023-07-18T08:04:01.893Z,100896.63
2023-07-18T08:06:30.004Z,100901.53
2023-07-18T08:08:58.583Z,100895.97
2023-07-18T08:11:26.640Z,100900.13
2023-07-18T08:13:56.226Z,100897.09
2023-07-18T08:16:27.390Z,100891.00
2023-07-18T08:18:55.796Z,100892.44
2023-07-18T08:21:24.170Z,100878.03
2023-07-18T08:23:52.404Z,100879.44
2023-07-18T08:26:20.549Z,100880.38
2023-07-18T08:28:48.948Z,100877.69
2023-07-18T08:31:18.680Z,100873.38
2023-07-18T08:33:47.574Z,100868.16
2023-07-18T08:36:15.662Z,100870.88
2023-07-18T08:38:50.424Z,100854.00
2023-07-18T08:41:19.725Z,100863.69
2023-07-18T08:43:48.955Z,100863.09
2023-07-18T08:46:19.403Z,100846.84
2023-07-18T08:48:48.845Z,100839.53
2023-07-18T08:51:17.251Z,100850.34
2023-07-18T08:53:46.168Z,100851.78
2023-07-18T08:56:14.263Z,100839.19
2023-07-18T08:58:42.581Z,100837.94
2023-07-18T09:01:10.692Z,100822.84
2023-07-18T09:03:40.474Z,100816.91
2023-07-18T09:06:19.261Z,100806.75
2023-07-18T09:08:47.882Z,100808.69
2023-07-18T09:11:20.250Z,100801.00
2023-07-18T09:13:49.222Z,100797.38
2023-07-18T09:16:19.316Z,100792.41
2023-07-18T09:18:51.704Z,100786.31
2023-07-18T09:21:24.030Z,100788.09
2023-07-18T09:23:53.896Z,100786.34
2023-07-18T09:26:23.295Z,100781.31
2023-07-18T09:28:53.064Z,100778.69
2023-07-18T09:31:22.955Z,100779.13
2023-07-18T09:33:54.254Z,100749.53
2023-07-18T09:36:23.520Z,100760.06
2023-07-18T09:38:52.402Z,100762.19
2023-07-18T09:41:22.925Z,100773.53
2023-07-18T09:43:51.661Z,100785.06
2023-07-18T09:46:19.779Z,100802.09
2023-07-18T09:48:51.079Z,100811.63
2023-07-18T09:51:23.321Z,100800.38
2023-07-18T09:53:55.002Z,100799.78
2023-07-18T09:56:23.633Z,100805.97
2023-07-18T09:58:52.179Z,100810.72
2023-07-18T10:01:22.098Z,100816.28
2023-07-18T10:03:53.999Z,100808.41
2023-07-18T10:06:23.771Z,100802.13
2023-07-18T10:08:52.334Z,100795.19
2023-07-18T10:11:20.680Z,100806.75
2023-07-18T10:14:13.273Z,100810.50
2023-07-18T10:16:43.377Z,100800.69
2023-07-18T10:19:19.552Z,100805.34
2023-07-18T10:21:49.039Z,100798.94
2023-07-18T10:24:25.690Z,100796.94
2023-07-18T10:26:56.608Z,100797.59
2023-07-18T10:30:04.538Z,100766.63
2023-07-18T10:32:33.235Z,100743.09
2023-07-18T10:35:02.046Z,100708.94
2023-07-18T10:37:31.960Z,100696.06
2023-07-18T10:40:05.953Z,100684.03
2023-07-18T10:42:36.204Z,100677.25
2023-07-18T10:45:06.502Z,100674.28
2023-07-18T10:47:37.244Z,100658.88
2023-07-18T10:50:07.676Z,100652.03
2023-07-18T10:52:37.277Z,100656.19
2023-07-18T10:55:08.301Z,100667.97
2023-07-18T10:57:39.588Z,100678.50
2023-07-18T11:00:09.179Z,100675.16
2023-07-18T11:02:39.493Z,100686.44
2023-07-18T11:05:12.006Z,100691.59
2023-07-18T11:07:43.382Z,100689.44
2023-07-18T11:10:14.039Z,100690.31
2023-07-18T11:12:43.046Z,100683.09
2023-07-18T11:15:12.919Z,100692.22
2023-07-18T11:17:43.148Z,100692.19
2023-07-18T11:20:13.347Z,100701.91
2023-07-18T11:22:43.258Z,100713.06
2023-07-18T11:25:12.270Z,100713.44
2023-07-18T11:27:41.044Z,100719.13
2023-07-18T11:30:12.293Z,100713.16
2023-07-18T11:32:42.273Z,100705.66
2023-07-18T11:35:12.588Z,100684.88
2023-07-18T11:37:43.236Z,100683.31
2023-07-18T11:40:14.142Z,100679.09
2023-07-18T11:42:47.508Z,100672.53
2023-07-18T11:45:20.946Z,100674.63
2023-07-18T11:47:50.752Z,100659.66
2023-07-18T11:50:20.099Z,100649.91
2023-07-18T11:52:49.592Z,100633.78
2023-07-18T11:55:20.227Z,100635.78
2023-07-18T11:57:49.580Z,100620.50
2023-07-18T12:00:18.717Z,100613.81
2023-07-18T12:02:49.106Z,100610.66
2023-07-18T12:05:18.114Z,100607.41
2023-07-18T12:07:47.262Z,100604.44
2023-07-18T12:10:16.951Z,100594.78
2023-07-18T12:12:46.566Z,100581.34
2023-07-18T12:15:15.170Z,100567.81
2023-07-18T12:17:43.861Z,100555.84
2023-07-18T12:20:13.384Z,100547.06
2023-07-18T12:22:41.642Z,100531.09
2023-07-18T12:25:10.472Z,100530.63
2023-07-18T12:27:39.243Z,100526.28
2023-07-18T12:30:13.380Z,100519.38
2023-07-18T12:32:41.889Z,100518.94
2023-07-18T12:35:10.669Z,100522.97
2023-07-18T12:37:38.775Z,100519.09
2023-07-18T12:40:08.805Z,100527.19
2023-07-18T12:42:37.105Z,100527.22
2023-07-18T12:45:06.247Z,100523.09
2023-07-18T12:47:35.743Z,100524.66
2023-07-18T12:50:05.097Z,100511.59
2023-07-18T12:52:33.282Z,100512.25
2023-07-18T12:55:01.665Z,100505.03
2023-07-18T12:57:32.273Z,100503.44
2023-07-18T13:00:01.169Z,100490.03
2023-07-18T13:02:30.356Z,100479.13
2023-07-18T13:05:00.012Z,100480.84
2023-07-18T13:07:28.086Z,100472.31
2023-07-18T13:09:56.418Z,100471.78
2023-07-18T13:12:24.513Z,100457.84
2023-07-18T13:14:52.804Z,100451.78
2023-07-18T13:17:22.034Z,100445.78
2023-07-18T13:19:50.528Z,100440.47
2023-07-18T13:22:19.919Z,100426.03
2023-07-18T13:24:48.246Z,100424.91
2023-07-18T13:27:16.282Z,100424.16
2023-07-18T13:29:44.552Z,100432.78
2023-07-18T13:32:12.701Z,100431.31
2023-07-18T13:34:41.060Z,100432.97
2023-07-18T13:37:09.089Z,100437.31
2023-07-18T13:39:39.007Z,100436.50
2023-07-18T13:42:07.742Z,100437.56
2023-07-18T13:44:36.011Z,100438.44
2023-07-18T13:47:04.512Z,100444.34
2023-07-18T13:52:04.736Z,100443.97
2023-07-18T13:54:33.113Z,100436.34
2023-07-18T13:57:02.462Z,100444.44
2023-07-18T13:59:30.696Z,100432.56
2023-07-18T14:01:58.904Z,100435.31
2023-07-18T14:04:27.779Z,100432.97
2023-07-18T14:06:55.898Z,100425.91
2023-07-18T14:09:24.161Z,100415.81
2023-07-18T14:11:52.566Z,100408.91
2023-07-18T14:14:22.252Z,100402.78
2023-07-18T14:16:50.319Z,100399.69
2023-07-18T14:19:18.674Z,100397.75
2023-07-18T14:21:49.612Z,100393.50
2023-07-18T14:24:17.956Z,100391.56
2023-07-18T14:26:46.050Z,100384.88
2023-07-18T14:29:14.396Z,100389.56
2023-07-18T14:31:44.181Z,100387.59
2023-07-18T14:34:12.513Z,100382.91
2023-07-18T14:36:40.480Z,100387.19
2023-07-18T14:39:09.113Z,100379.34
2023-07-18T14:41:37.174Z,100378.06
2023-07-18T14:44:05.899Z,100368.94
2023-07-18T14:46:34.906Z,100366.47
2023-07-18T14:49:04.571Z,100356.13
2023-07-18T14:51:33.351Z,100349.00
2023-07-18T14:54:01.754Z,100347.28
2023-07-18T14:56:30.413Z,100340.59
2023-07-18T14:58:58.629Z,100336.22
2023-07-18T15:01:27.016Z,100332.94
2023-07-18T15:03:55.587Z,100327.53
2023-07-18T15:06:25.170Z,100316.34
2023-07-18T15:08:53.833Z,100307.34
2023-07-18T15:11:22.207Z,100304.91
2023-07-18T15:13:50.761Z,100310.38
2023-07-18T15:16:19.081Z,100306.91
2023-07-18T15:18:47.611Z,100299.00
2023-07-18T15:21:15.675Z,100296.69
2023-07-18T15:23:45.251Z,100292.16
2023-07-18T15:26:14.597Z,100285.50
2023-07-18T15:28:42.986Z,100275.44
2023-07-18T15:31:11.102Z,100279.19
2023-07-18T15:33:39.515Z,100270.28
2023-07-18T15:36:07.741Z,100276.88
2023-07-18T15:38:36.019Z,100272.19
2023-07-18T15:41:05.529Z,100271.66
2023-07-18T15:43:34.201Z,100263.94
2023-07-18T15:46:04.503Z,100263.94
2023-07-18T15:48:32.874Z,100253.22
2023-07-18T15:51:00.902Z,100245.28
2023-07-18T15:53:29.151Z,100243.25
2023-07-18T15:55:57.709Z,100242.53
2023-07-18T15:58:27.305Z,100236.34
2023-07-18T16:00:57.532Z,100241.88
2023-07-18T16:03:26.071Z,100227.41
2023-07-18T16:05:54.536Z,100220.38
2023-07-18T16:08:22.905Z,100222.69
2023-07-18T16:10:51.114Z,100221.28
2023-07-18T16:13:19.427Z,100212.50
2023-07-18T16:15:48.871Z,100202.34
2023-07-18T16:18:17.983Z,100203.75
2023-07-18T16:20:46.265Z,100200.63
2023-07-18T16:23:14.715Z,100197.38
2023-07-18T16:25:43.742Z,100192.31
2023-07-18T16:28:12.282Z,100190.69
2023-07-18T16:30:40.305Z,100187.59
2023-07-18T16:33:10.031Z,100176.63
2023-07-18T16:35:39.321Z,100169.47
2023-07-18T16:38:08.221Z,100185.50
2023-07-18T16:40:36.808Z,100183.84
2023-07-18T16:43:05.898Z,100180.81
2023-07-18T16:45:35.799Z,100186.69
2023-07-18T16:48:06.571Z,100186.34
2023-07-18T16:50:36.996Z,100198.41
2023-07-18T16:53:05.425Z,100190.09
2023-07-18T16:55:33.440Z,100197.97
2023-07-18T16:58:02.023Z,100192.22
2023-07-18T17:00:30.173Z,100182.44
2023-07-18T17:02:58.403Z,100175.78
2023-07-18T17:05:26.654Z,100178.94
2023-07-18T17:07:56.519Z,100169.09
2023-07-18T17:10:25.460Z,100178.19
2023-07-18T17:12:53.818Z,100175.44
2023-07-18T17:15:22.136Z,100173.31
2023-07-18T17:17:50.663Z,100167.13
2023-07-18T17:20:18.672Z,100163.84
2023-07-18T17:22:47.054Z,100154.50
2023-07-18T17:25:16.648Z,100159.50
2023-07-18T17:27:44.907Z,100156.69
2023-07-18T17:30:14.980Z,100152.19
2023-07-18T17:32:43.653Z,100156.47
2023-07-18T17:35:11.712Z,100151.63
2023-07-18T17:37:41.128Z,100147.88
2023-07-18T17:40:12.425Z,100150.13
2023-07-18T17:42:44.098Z,100141.84
2023-07-18T17:45:13.361Z,100149.81
2023-07-18T17:47:44.609Z,100143.50
2023-07-18T17:50:12.884Z,100142.81
2023-07-18T17:52:41.951Z,100149.53
2023-07-18T17:55:10.652Z,100149.88
2023-07-18T17:57:40.681Z,100147.19
2023-07-18T18:00:11.415Z,100139.25
2023-07-18T18:02:44.616Z,100133.63
2023-07-18T18:05:34.844Z,100138.31
2023-07-18T18:08:04.436Z,100130.63
2023-07-18T18:10:33.106Z,100138.91
2023-07-18T18:13:01.488Z,100130.13
2023-07-18T18:15:31.269Z,100122.72
2023-07-18T18:18:00.320Z,100116.16
2023-07-18T18:20:28.452Z,100117.16
2023-07-18T18:22:58.835Z,100122.88
2023-07-18T18:25:28.001Z,100119.63
2023-07-18T18:27:57.378Z,100125.00
2023-07-18T18:30:25.911Z,100131.44
2023-07-18T18:32:55.593Z,100137.88
2023-07-18T18:35:23.679Z,100153.69
2023-07-18T18:37:51.927Z,100156.50
2023-07-18T18:40:21.058Z,100160.13
2023-07-18T18:42:49.453Z,100159.75
2023-07-18T18:45:17.774Z,100150.34
2023-07-18T18:47:47.607Z,100163.28
2023-07-18T18:50:18.349Z,100172.69
2023-07-18T18:52:46.723Z,100167.22
2023-07-18T18:55:20.298Z,100168.03
2023-07-18T18:57:48.942Z,100186.38
2023-07-18T19:00:17.788Z,100185.97
2023-07-18T19:02:46.135Z,100198.47
2023-07-18T19:05:14.266Z,100198.47
2023-07-18T19:07:43.948Z,100200.78
2023-07-18T19:10:12.090Z,100198.38
2023-07-18T19:12:40.370Z,100185.09
2023-07-18T19:15:09.234Z,100186.19
2023-07-18T19:17:37.611Z,100189.66
2023-07-18T19:20:06.762Z,100190.41
2023-07-18T19:22:35.175Z,100199.03
2023-07-18T19:25:07.280Z,100202.13
2023-07-18T19:27:36.009Z,100196.69
2023-07-18T19:30:04.439Z,100187.28
2023-07-18T19:32:33.305Z,100181.03
2023-07-18T19:35:03.853Z,100186.41
2023-07-18T19:37:32.416Z,100174.00
2023-07-18T19:40:00.466Z,100152.38
2023-07-18T19:42:30.194Z,100148.88
2023-07-18T19:44:58.412Z,100162.09
2023-07-18T19:47:26.874Z,100180.78
2023-07-18T19:49:56.370Z,100189.25
2023-07-18T19:52:24.702Z,100190.84
2023-07-18T19:54:52.693Z,100199.94
2023-07-18T19:57:21.215Z,100212.31
2023-07-18T19:59:50.782Z,100205.56
2023-07-18T20:02:19.193Z,100210.84
2023-07-18T20:04:47.740Z,100208.53
2023-07-18T20:07:16.735Z,100209.88
2023-07-18T20:09:44.875Z,100207.63
2023-07-18T20:12:13.260Z,100211.84
2023-07-18T20:14:41.602Z,100203.44
2023-07-18T20:17:11.445Z,100218.09
2023-07-18T20:19:39.614Z,100227.09
2023-07-18T20:22:08.005Z,100224.31
2023-07-18T20:24:35.998Z,100230.47
2023-07-18T20:27:04.620Z,100225.53
2023-07-18T20:29:32.949Z,100211.50
2023-07-18T20:32:01.732Z,100204.50
2023-07-18T20:34:31.246Z,100208.81
2023-07-18T20:36:59.553Z,100222.25
2023-07-18T20:39:27.576Z,100228.19
2023-07-18T20:41:56.002Z,100228.19
2023-07-18T20:44:24.012Z,100231.66
2023-07-18T20:46:52.335Z,100229.94
2023-07-18T20:49:20.309Z,100204.44
2023-07-18T20:51:49.871Z,100206.06
2023-07-18T20:54:18.118Z,100208.19
2023-07-18T20:56:46.351Z,100210.22
2023-07-18T20:59:14.412Z,100218.50
2023-07-18T21:01:42.707Z,100218.31
2023-07-18T21:04:10.876Z,100215.88
2023-07-18T21:06:39.268Z,100207.91
2023-07-18T21:09:08.630Z,100198.75
2023-07-18T21:11:37.095Z,100175.31
2023-07-18T21:14:05.169Z,100171.66
2023-07-18T21:16:34.720Z,100171.81
2023-07-18T21:19:02.726Z,100160.03
2023-07-18T21:21:31.834Z,100166.97
2023-07-18T21:24:00.756Z,100170.91
2023-07-18T21:26:30.473Z,100169.53
2023-07-18T21:29:04.704Z,100173.50
2023-07-18T21:31:34.382Z,100170.34
2023-07-18T21:34:02.790Z,100165.63
2023-07-18T21:36:31.072Z,100162.84
2023-07-18T21:38:59.093Z,100157.03
2023-07-18T21:41:30.257Z,100164.91
2023-07-18T21:43:59.762Z,100176.78
2023-07-18T21:46:28.216Z,100183.59
2023-07-18T21:48:56.482Z,100179.66
2023-07-18T21:51:24.739Z,100173.19
2023-07-18T21:53:52.710Z,100176.59
2023-07-18T21:56:21.272Z,100175.69
2023-07-18T21:58:49.328Z,100174.56
2023-07-18T22:01:19.200Z,100174.44
2023-07-18T22:03:47.488Z,100167.88
2023-07-18T22:06:16.224Z,100167.72
2023-07-18T22:08:44.208Z,100165.72
2023-07-18T22:11:12.468Z,100166.34
2023-07-18T22:13:40.605Z,100174.72
2023-07-18T22:16:08.979Z,100165.53
2023-07-18T22:18:38.540Z,100163.00
2023-07-18T22:21:06.851Z,100173.94
2023-07-18T22:23:34.909Z,100174.75
2023-07-18T22:26:13.702Z,100177.91
2023-07-18T22:28:43.232Z,100177.44
2023-07-18T22:31:12.431Z,100175.19
2023-07-18T22:33:41.876Z,100179.81
2023-07-18T22:36:10.222Z,100175.78
2023-07-18T22:38:38.317Z,100184.41
2023-07-18T22:41:06.556Z,100179.81
2023-07-18T22:43:34.627Z,100184.19
2023-07-18T22:46:02.890Z,100179.78
2023-07-18T22:48:30.937Z,100187.00
2023-07-18T22:51:00.541Z,100180.16
2023-07-18T22:53:28.571Z,100190.31
2023-07-18T22:55:57.156Z,100173.84
2023-07-18T22:58:25.333Z,100176.56
2023-07-18T23:00:53.933Z,100166.88
2023-07-18T23:03:22.125Z,100173.06
2023-07-18T23:05:50.422Z,100172.81
2023-07-18T23:08:19.835Z,100188.28
2023-07-18T23:10:48.563Z,100191.31
2023-07-18T23:13:16.656Z,100186.81
2023-07-18T23:15:45.045Z,100191.31
2023-07-18T23:18:13.170Z,100180.16
2023-07-18T23:20:41.545Z,100184.88
2023-07-18T23:23:09.664Z,100186.56
2023-07-18T23:25:39.390Z,100179.81
2023-07-18T23:28:07.514Z,100187.66
2023-07-18T23:30:35.972Z,100187.44
2023-07-18T23:33:03.982Z,100192.38
2023-07-18T23:35:32.260Z,100188.06
2023-07-18T23:38:00.231Z,100177.63
2023-07-18T23:40:28.499Z,100175.19
2023-07-18T23:42:57.917Z,100180.97
2023-07-18T23:45:26.394Z,100178.34
2023-07-18T23:47:54.424Z,100181.19
2023-07-18T23:50:22.752Z,100184.59
2023-07-18T23:52:50.765Z,100193.19
2023-07-18T23:55:19.036Z,100183.81
2023-07-18T23:57:47.060Z,100185.34
